Time;durP1;ratioP1;P1;durP2;ratioP2;P2;SDS_P1;SDS_P2;PMS_P1;PMS_P2;Temp;Humidity;BMP_temperature;BMP_pressure;BME280_temperature;BME280_humidity;BME280_pressure;Samples;Min_cycle;Max_cycle;Signal;HPM_P1;HPM_P2
2021/10/10 00:00:49;;;;;;;;;45.00;36.00;;;;;10.33;43.89;100134.59;6161374;28;96731;-67
2021/10/10 00:03:54;;;;;;;;;47.20;37.60;;;;;10.33;43.94;100129.22;6160744;28;96738;-68
2021/10/10 00:06:57;;;;;;;;;46.60;37.60;;;;;10.34;44.04;100126.34;6160875;28;97110;-68
2021/10/10 00:10:00;;;;;;;;;43.40;36.00;;;;;10.32;43.99;100131.06;6161142;28;97559;-67
2021/10/10 00:13:04;;;;;;;;;46.80;38.20;;;;;10.31;43.95;100125.88;6144981;28;96479;-66
2021/10/10 00:16:07;;;;;;;;;48.00;38.00;;;;;10.26;44.09;100123.72;6160670;28;97507;-66
2021/10/10 00:19:14;;;;;;;;;47.40;38.00;;;;;10.27;44.17;100119.19;6160552;28;97169;-67
2021/10/10 00:22:18;;;;;;;;;45.00;36.00;;;;;10.23;44.31;100126.81;6126493;28;97994;-66
2021/10/10 00:25:21;;;;;;;;;46.50;36.00;;;;;10.16;44.50;100131.31;6128529;28;98017;-66
2021/10/10 00:28:25;;;;;;;;;40.60;35.00;;;;;10.11;44.62;100125.63;6142460;28;97388;-66
2021/10/10 00:31:29;;;;;;;;;46.75;38.00;;;;;10.10;44.42;100128.50;6143422;28;96515;-67
2021/10/10 00:34:33;;;;;;;;;45.40;36.80;;;;;10.11;44.40;100128.31;6161293;28;97233;-66
2021/10/10 00:37:37;;;;;;;;;44.60;35.00;;;;;10.09;44.38;100121.41;6159297;28;97469;-66
2021/10/10 00:40:40;;;;;;;;;43.80;35.00;;;;;10.09;44.17;100114.19;6162586;28;97426;-69
2021/10/10 00:43:44;;;;;;;;;44.20;35.40;;;;;10.03;44.13;100117.63;6147115;28;97508;-69
2021/10/10 00:46:47;;;;;;;;;39.50;33.50;;;;;9.99;44.42;100114.47;6166946;28;97495;-65
2021/10/10 00:49:52;;;;;;;;;42.40;35.00;;;;;10.02;44.43;100107.84;6145907;28;98593;-66
2021/10/10 00:52:55;;;;;;;;;45.00;34.00;;;;;10.07;44.20;100118.91;6130427;28;96860;-69
2021/10/10 00:56:00;;;;;;;;;35.50;32.00;;;;;10.02;44.29;100107.84;6165111;28;96698;-68
2021/10/10 00:59:06;;;;;;;;;39.50;33.00;;;;;9.93;43.99;100099.06;6132020;28;99609;-67
2021/10/10 01:02:10;;;;;;;;;38.00;34.00;;;;;9.88;44.35;100092.56;6146672;28;97970;-69
2021/10/10 01:05:15;;;;;;;;;40.60;33.40;;;;;9.97;44.18;100097.66;6129471;28;98497;-66
2021/10/10 01:08:20;;;;;;;;;43.67;35.00;;;;;10.06;44.11;100100.25;6146810;28;97231;-68
2021/10/10 01:11:23;;;;;;;;;42.50;34.50;;;;;10.04;44.22;100097.75;6147841;28;97820;-68
2021/10/10 01:14:26;;;;;;;;;42.00;35.00;;;;;10.00;44.62;100099.16;6164542;28;96645;-67
2021/10/10 01:17:30;;;;;;;;;45.00;34.80;;;;;10.07;44.08;100100.03;6165888;28;96426;-65
2021/10/10 01:20:44;;;;;;;;;42.20;35.00;;;;;10.02;44.41;100098.97;6149050;28;98005;-68
2021/10/10 01:23:48;;;;;;;;;40.60;34.00;;;;;10.04;44.29;100091.50;6164829;28;97096;-67
2021/10/10 01:26:54;;;;;;;;;36.80;32.80;;;;;9.92;44.34;100088.50;6162794;28;96912;-65
2021/10/10 01:29:57;;;;;;;;;46.00;35.75;;;;;9.89;44.54;100086.16;6146075;28;97404;-66
2021/10/10 01:33:01;;;;;;;;;40.00;33.60;;;;;9.85;44.45;100068.69;6164839;28;96715;-66
2021/10/10 01:36:11;;;;;;;;;39.00;33.00;;;;;9.92;44.44;100078.53;6162776;28;97226;-65
2021/10/10 01:39:14;;;;;;;;;44.67;34.67;;;;;9.91;44.45;100074.19;6144852;28;97803;-66
2021/10/10 01:42:17;;;;;;;;;45.00;34.00;;;;;9.76;44.79;100081.44;6147120;28;97377;-67
2021/10/10 01:45:25;;;;;;;;;38.60;33.60;;;;;9.74;44.75;100077.25;6146119;28;97177;-67
2021/10/10 01:48:28;;;;;;;;;40.40;35.00;;;;;9.69;44.94;100068.91;6132843;28;97808;-66
2021/10/10 01:51:33;;;;;;;;;43.20;35.00;;;;;9.73;44.92;100076.41;6163160;28;96623;-66
2021/10/10 01:54:36;;;;;;;;;41.60;34.60;;;;;9.70;44.85;100079.50;6144657;28;96999;-69
2021/10/10 01:57:40;;;;;;;;;44.67;36.00;;;;;9.66;44.87;100077.34;6171532;28;97251;-65
2021/10/10 02:00:43;;;;;;;;;41.80;34.80;;;;;9.63;45.06;100067.78;6163485;28;97024;-65
2021/10/10 02:03:47;;;;;;;;;42.00;34.00;;;;;9.62;45.16;100070.69;6164082;28;96658;-69
2021/10/10 02:06:51;;;;;;;;;43.00;33.75;;;;;9.62;45.32;100059.91;6147556;28;96532;-67
2021/10/10 02:09:55;;;;;;;;;43.60;35.00;;;;;9.60;45.25;100062.78;6163196;28;97069;-68
2021/10/10 02:12:58;;;;;;;;;40.00;33.00;;;;;9.58;45.12;100067.50;6164345;28;96671;-65
2021/10/10 02:16:01;;;;;;;;;44.00;35.00;;;;;9.60;45.12;100067.31;6146704;28;97131;-69
2021/10/10 02:19:05;;;;;;;;;40.80;33.80;;;;;9.49;45.57;100065.94;6164767;28;97346;-67
2021/10/10 02:22:10;;;;;;;;;43.20;33.00;;;;;9.45;45.50;100070.88;6164053;28;96444;-67
2021/10/10 02:25:13;;;;;;;;;38.80;33.00;;;;;9.39;45.46;100063.53;6163914;28;97142;-66
2021/10/10 02:28:16;;;;;;;;;45.00;36.00;;;;;9.34;45.57;100062.41;6162767;28;97489;-67
2021/10/10 02:31:23;;;;;;;;;46.40;35.60;;;;;9.29;45.75;100070.19;6145018;28;96982;-66
2021/10/10 02:34:27;;;;;;;;;40.00;33.00;;;;;9.21;45.89;100068.44;6162786;28;96519;-67
2021/10/10 02:37:32;;;;;;;;;42.60;34.40;;;;;9.14;45.94;100079.09;6162912;28;97525;-68
2021/10/10 02:40:35;;;;;;;;;41.25;36.00;;;;;9.16;45.88;100068.16;6163654;28;96712;-68
2021/10/10 02:43:38;;;;;;;;;45.00;35.80;;;;;9.08;46.26;100063.72;6130319;28;97427;-67
2021/10/10 02:46:42;;;;;;;;;43.00;35.00;;;;;9.07;46.24;100066.56;6164328;28;96753;-66
2021/10/10 02:49:45;;;;;;;;;42.00;35.00;;;;;9.07;46.12;100066.56;6161638;28;99642;-68
2021/10/10 02:52:49;;;;;;;;;38.60;33.00;;;;;9.10;46.17;100066.19;6150215;28;96594;-68
2021/10/10 02:55:53;;;;;;;;;43.00;35.00;;;;;9.11;46.52;100070.56;6145815;28;96865;-68
2021/10/10 02:58:56;;;;;;;;;42.00;34.40;;;;;9.08;46.12;100070.94;6163095;28;96706;-66
2021/10/10 03:01:59;;;;;;;;;41.40;35.00;;;;;9.07;46.14;100070.09;6162220;28;97196;-69
2021/10/10 03:05:03;;;;;;;;;38.00;32.20;;;;;9.01;46.33;100064.59;6160711;28;98084;-66
2021/10/10 03:08:07;;;;;;;;;45.00;35.00;;;;;8.93;46.52;100062.00;6149825;28;97563;-68
2021/10/10 03:11:11;;;;;;;;;39.75;33.00;;;;;8.97;46.25;100066.00;6159923;28;96632;-66
2021/10/10 03:14:14;;;;;;;;;42.00;34.00;;;;;8.94;46.06;100061.00;6161179;28;96829;-66
2021/10/10 03:17:17;;;;;;;;;43.00;35.00;;;;;8.92;46.38;100060.31;6143328;28;97557;-67
2021/10/10 03:20:21;;;;;;;;;44.50;34.50;;;;;8.93;46.48;100062.00;6161358;28;98143;-66
2021/10/10 03:23:25;;;;;;;;;43.60;35.00;;;;;9.00;46.16;100060.22;6161881;28;97237;-67
2021/10/10 03:26:29;;;;;;;;;41.50;35.00;;;;;8.95;46.08;100058.09;6129283;28;98448;-68
2021/10/10 03:29:32;;;;;;;;;45.80;35.00;;;;;8.93;46.24;100062.84;6162334;28;96456;-69
2021/10/10 03:32:35;;;;;;;;;40.80;34.80;;;;;8.86;46.23;100052.97;6161750;28;97221;-67
2021/10/10 03:35:38;;;;;;;;;41.80;34.80;;;;;8.81;46.51;100052.69;6163671;28;96611;-66
2021/10/10 03:38:43;;;;;;;;;36.80;32.80;;;;;8.82;46.46;100049.00;6163915;28;96947;-66
2021/10/10 03:41:46;;;;;;;;;40.00;34.00;;;;;8.74;46.55;100041.84;6163259;28;97535;-67
2021/10/10 03:44:50;;;;;;;;;40.00;33.80;;;;;8.77;46.43;100040.63;6147838;28;97531;-66
2021/10/10 03:47:53;;;;;;;;;40.00;33.00;;;;;8.77;46.56;100024.50;6161927;28;96897;-66
2021/10/10 03:50:56;;;;;;;;;38.40;33.00;;;;;8.79;46.67;100030.53;6144992;28;96792;-68
2021/10/10 03:57:24;;;;;;;;;42.40;35.00;;;;;8.77;46.54;100027.19;6135014;28;96915;-66
2021/10/10 04:00:29;;;;;;;;;42.00;35.00;;;;;8.73;46.38;100026.72;6161927;28;98198;-67
2021/10/10 04:03:33;;;;;;;;;37.60;32.60;;;;;8.72;46.70;100025.03;6161701;28;96578;-67
2021/10/10 04:06:36;;;;;;;;;41.50;34.50;;;;;8.62;46.76;100022.59;6162078;28;97449;-66
2021/10/10 04:09:40;;;;;;;;;42.80;35.40;;;;;8.54;47.13;100029.91;6143805;28;99704;-69
2021/10/10 04:12:44;;;;;;;;;43.00;35.00;;;;;8.47;47.08;100023.56;6144956;28;96612;-69
2021/10/10 04:15:47;;;;;;;;;41.50;34.00;;;;;8.27;47.00;99990.97;6165814;28;96719;-66
2021/10/10 04:18:50;;;;;;;;;39.40;35.00;;;;;8.38;47.20;100025.50;6168236;28;96407;-67
2021/10/10 04:21:53;;;;;;;;;39.00;33.50;;;;;8.40;47.21;100023.47;6165597;28;97025;-67
2021/10/10 04:24:58;;;;;;;;;40.00;33.00;;;;;8.39;47.17;100019.13;6148945;28;97340;-65
2021/10/10 04:28:01;;;;;;;;;41.60;34.60;;;;;8.41;47.08;100022.44;6165201;28;97258;-65
2021/10/10 04:31:04;;;;;;;;;37.20;31.40;;;;;8.42;47.31;100017.91;6165706;28;96936;-67
2021/10/10 04:34:08;;;;;;;;;40.60;33.00;;;;;8.34;47.46;100023.34;6165847;28;97649;-65
2021/10/10 04:37:12;;;;;;;;;38.00;33.00;;;;;8.36;47.42;100027.53;6153941;28;97141;-66
2021/10/10 04:40:17;;;;;;;;;46.00;35.00;;;;;8.38;47.24;100022.81;6165895;28;96541;-66
2021/10/10 04:43:20;;;;;;;;;39.60;33.00;;;;;8.35;47.43;100025.03;6165946;28;97545;-69
2021/10/10 04:46:23;;;;;;;;;37.50;32.75;;;;;8.35;47.36;100017.81;6158997;28;96676;-67
2021/10/10 04:49:26;;;;;;;;;36.80;33.00;;;;;8.32;47.65;100020.84;6163663;28;98176;-67
2021/10/10 04:52:30;;;;;;;;;44.40;35.40;;;;;8.34;47.63;100016.13;6149903;28;97999;-69
2021/10/10 04:55:34;;;;;;;;;41.00;33.00;;;;;8.35;47.42;100015.13;6166719;28;96931;-67
2021/10/10 04:58:38;;;;;;;;;40.50;33.50;;;;;8.32;47.55;100014.63;6165570;28;96585;-68
2021/10/10 05:01:41;;;;;;;;;38.00;33.00;;;;;8.34;47.65;100024.19;6168995;28;97983;-67
2021/10/10 05:04:45;;;;;;;;;42.00;33.00;;;;;8.30;47.74;100028.25;6145543;28;96603;-67
2021/10/10 05:07:48;;;;;;;;;40.40;33.60;;;;;8.22;47.53;100004.09;6163227;28;97420;-67
2021/10/10 05:10:53;;;;;;;;;41.00;32.80;;;;;8.32;47.64;100020.84;6141352;28;99114;-68
2021/10/10 05:13:57;;;;;;;;;40.20;35.00;;;;;8.27;47.84;100028.56;6163086;28;97051;-67
2021/10/10 05:17:00;;;;;;;;;40.80;33.20;;;;;8.28;47.80;100031.09;6163407;28;98692;-67
2021/10/10 05:20:04;;;;;;;;;39.40;33.00;;;;;8.30;47.79;100027.41;6163928;28;98277;-67
2021/10/10 05:23:10;;;;;;;;;39.00;33.20;;;;;8.35;47.89;100033.94;6165217;28;96773;-66
2021/10/10 05:26:15;;;;;;;;;41.40;34.00;;;;;8.53;47.42;100029.06;6146623;28;97068;-65
2021/10/10 05:29:18;;;;;;;;;41.50;35.00;;;;;8.49;47.51;100016.19;6165286;28;97092;-69
2021/10/10 05:32:21;;;;;;;;;37.00;33.00;;;;;8.67;47.13;100025.59;6145859;28;97950;-66
2021/10/10 05:35:25;;;;;;;;;42.00;34.20;;;;;8.62;47.11;100028.00;6163585;28;98163;-69
2021/10/10 05:38:28;;;;;;;;;42.00;34.00;;;;;8.69;47.03;100030.78;6164925;28;96632;-67
2021/10/10 05:41:33;;;;;;;;;44.50;36.00;;;;;8.82;46.85;100031.00;6163003;28;96598;-69
2021/10/10 05:44:36;;;;;;;;;42.00;32.60;;;;;8.97;46.84;100025.66;6141251;28;98438;-68
2021/10/10 05:47:39;;;;;;;;;40.20;33.00;;;;;9.03;46.51;100028.44;6143865;28;100045;-67
2021/10/10 05:50:42;;;;;;;;;42.40;36.00;;;;;9.19;46.29;100032.78;6159148;28;99678;-66
2021/10/10 05:53:46;;;;;;;;;44.75;36.00;;;;;9.42;46.06;100035.41;6174928;28;98316;-68
2021/10/10 05:56:50;;;;;;;;;39.67;34.33;;;;;9.52;45.40;100042.19;6165637;28;96592;-66
2021/10/10 06:00:01;;;;;;;;;44.00;35.50;;;;;9.62;44.70;100024.91;6140534;28;99029;-66
2021/10/10 06:03:07;;;;;;;;;41.20;34.80;;;;;9.83;44.58;100043.81;6156781;28;97106;-66
2021/10/10 06:06:10;;;;;;;;;42.00;34.20;;;;;9.97;44.21;100042.94;6159676;28;96651;-67
2021/10/10 06:09:14;;;;;;;;;40.50;33.00;;;;;9.98;44.02;100047.28;6161522;28;96645;-66
2021/10/10 06:12:19;;;;;;;;;42.60;33.80;;;;;10.04;43.89;100045.72;6163706;28;97588;-69
2021/10/10 06:15:23;;;;;;;;;37.40;32.00;;;;;10.24;43.67;100044.09;6147323;28;96817;-66
2021/10/10 06:29:48;;;;;;;;;40.00;33.75;;;;;11.67;40.35;100018.41;6232912;27;96320;-66
2021/10/10 06:32:51;;;;;;;;;41.80;34.80;;;;;11.95;39.68;99994.00;6192924;28;97617;-66
2021/10/10 06:35:55;;;;;;;;;42.20;33.20;;;;;12.21;39.19;100015.72;6184847;28;96606;-66
2021/10/10 06:38:58;;;;;;;;;43.75;35.25;;;;;12.94;38.36;100030.97;6197132;28;97082;-66
2021/10/10 06:42:02;;;;;;;;;41.00;34.00;;;;;13.88;37.13;100025.09;6220791;28;97573;-68
2021/10/10 06:45:08;;;;;;;;;36.75;32.00;;;;;15.08;34.65;100022.22;6218685;28;97471;-69
2021/10/10 06:48:12;;;;;;;;;40.80;33.00;;;;;16.90;31.67;100018.44;6211596;27;98043;-69
2021/10/10 06:51:16;;;;;;;;;37.00;32.00;;;;;18.59;28.41;100030.78;6197091;28;97250;-69
2021/10/10 06:54:19;;;;;;;;;40.40;34.60;;;;;20.55;26.31;100039.31;6187661;28;97638;-67
2021/10/10 06:57:25;;;;;;;;;40.20;33.00;;;;;22.34;24.28;100039.13;6198237;28;97771;-68
2021/10/10 07:00:29;;;;;;;;;34.75;31.25;;;;;23.33;22.33;100035.09;6183332;28;98158;-68
2021/10/10 07:03:35;;;;;;;;;37.00;32.00;;;;;23.84;21.44;100022.06;6186165;28;98409;-70
2021/10/10 07:06:38;;;;;;;;;37.50;32.00;;;;;24.89;21.23;100025.34;6187874;28;97699;-68
2021/10/10 07:09:41;;;;;;;;;38.60;32.60;;;;;25.36;19.96;100026.59;6188327;28;97519;-68
2021/10/10 07:12:45;;;;;;;;;39.00;33.00;;;;;25.92;19.82;100029.56;6189271;28;96726;-69
2021/10/10 07:15:51;;;;;;;;;40.00;33.00;;;;;26.16;19.15;100019.31;6186753;28;97475;-70
2021/10/10 07:18:55;;;;;;;;;38.00;32.00;;;;;26.33;18.85;100020.78;6185848;28;96742;-70
2021/10/10 07:22:00;;;;;;;;;39.00;33.50;;;;;26.45;18.28;100021.16;6190421;28;96770;-69
2021/10/10 07:25:07;;;;;;;;;39.50;33.25;;;;;26.71;18.83;100014.94;6184942;28;97551;-70
2021/10/10 07:28:11;;;;;;;;;39.00;33.00;;;;;26.10;19.07;100009.44;6191451;28;97523;-68
2021/10/10 07:31:15;;;;;;;;;44.40;35.00;;;;;24.72;20.01;100010.31;6165427;28;97124;-67
2021/10/10 07:34:19;;;;;;;;;42.40;33.40;;;;;24.11;20.58;100016.97;6169915;28;96763;-67
2021/10/10 07:37:22;;;;;;;;;37.60;33.00;;;;;24.14;20.99;100015.59;6172666;28;97563;-69
2021/10/10 07:40:26;;;;;;;;;40.80;34.60;;;;;24.42;21.00;100012.16;6170190;28;98481;-69
2021/10/10 07:43:30;;;;;;;;;42.00;33.20;;;;;24.40;20.85;100008.84;6169497;28;97437;-69
2021/10/10 07:46:37;;;;;;;;;39.00;33.00;;;;;23.96;21.19;100000.53;6182040;28;97189;-67
2021/10/10 07:49:41;;;;;;;;;39.33;33.00;;;;;23.88;21.68;100012.13;6188772;28;97132;-67
2021/10/10 07:52:44;;;;;;;;;39.00;33.00;;;;;23.98;21.72;100012.09;6188903;28;96666;-68
2021/10/10 07:55:47;;;;;;;;;42.00;34.20;;;;;24.18;21.70;100011.22;6188121;28;97401;-68
2021/10/10 07:58:51;;;;;;;;;38.40;33.20;;;;;25.06;20.59;100013.09;6189057;28;97000;-68
2021/10/10 08:01:55;;;;;;;;;41.67;36.00;;;;;25.94;19.56;100015.47;6186805;28;97486;-68
2021/10/10 08:04:59;;;;;;;;;37.80;33.00;;;;;26.11;19.54;100019.38;6190018;28;96986;-68
2021/10/10 08:08:02;;;;;;;;;41.40;33.60;;;;;26.85;18.66;100016.94;6187995;28;97142;-67
2021/10/10 08:11:06;;;;;;;;;42.75;34.75;;;;;27.71;18.33;100009.91;6188351;28;97423;-67
2021/10/10 08:14:10;;;;;;;;;36.60;32.00;;;;;28.54;17.55;100009.47;6198214;28;96671;-65
2021/10/10 08:17:15;;;;;;;;;40.80;33.80;;;;;29.40;16.83;100012.09;6190303;28;97119;-66
2021/10/10 08:20:18;;;;;;;;;42.00;35.00;;;;;29.95;16.69;99993.06;6189816;28;96730;-67
2021/10/10 08:23:22;;;;;;;;;40.40;35.00;;;;;29.96;16.46;100008.56;6188853;28;97910;-67
2021/10/10 08:26:25;;;;;;;;;39.00;33.50;;;;;29.27;16.38;100003.50;6187928;28;97486;-67
2021/10/10 08:29:29;;;;;;;;;40.00;33.00;;;;;28.26;17.51;100002.38;6185534;28;98657;-67
2021/10/10 08:32:34;;;;;;;;;41.00;35.00;;;;;27.21;17.69;100000.59;6186976;28;96634;-66
2021/10/10 08:35:37;;;;;;;;;40.50;35.00;;;;;26.34;18.96;100003.09;6173212;28;96729;-67
2021/10/10 08:38:41;;;;;;;;;39.00;34.60;;;;;25.48;19.80;99999.41;6186282;28;97583;-70
2021/10/10 08:41:47;;;;;;;;;40.00;34.60;;;;;25.91;19.94;99992.00;6183798;28;96666;-66
2021/10/10 08:44:53;;;;;;;;;37.75;33.00;;;;;26.19;19.54;99987.50;6188118;28;96881;-66
2021/10/10 08:47:58;;;;;;;;;40.00;34.60;;;;;26.64;19.20;99974.94;6185333;28;97577;-69
2021/10/10 08:51:01;;;;;;;;;40.00;33.00;;;;;27.36;18.07;99981.75;6186070;28;97537;-67
2021/10/10 08:54:05;;;;;;;;;41.00;33.33;;;;;27.79;17.92;99984.25;6167589;28;97196;-67
2021/10/10 08:57:09;;;;;;;;;42.25;33.75;;;;;28.23;17.58;99983.59;6174279;28;96874;-69
2021/10/10 09:00:16;;;;;;;;;40.40;35.00;;;;;27.95;17.34;99964.19;6166811;28;97512;-68
2021/10/10 09:03:21;;;;;;;;;39.00;33.75;;;;;28.08;17.62;99987.50;6162981;28;97395;-66
2021/10/10 09:06:26;;;;;;;;;40.75;34.00;;;;;28.42;17.77;99979.53;6160268;28;97759;-65
2021/10/10 09:09:30;;;;;;;;;46.40;36.00;;;;;28.93;17.26;99971.94;6161571;28;97429;-67
2021/10/10 09:12:34;;;;;;;;;40.00;33.60;;;;;29.53;16.55;99966.72;6163204;28;96696;-68
2021/10/10 09:15:40;;;;;;;;;41.80;33.80;;;;;29.96;16.16;99969.66;6161795;28;99414;-69
2021/10/10 09:18:45;;;;;;;;;41.75;34.25;;;;;30.23;15.89;99961.03;6175534;28;97468;-69
2021/10/10 09:21:59;;;;;;;;;42.00;35.00;;;;;30.48;15.32;99938.00;6198307;28;96578;-68
2021/10/10 09:25:10;;;;;;;;;41.00;35.00;;;;;30.15;15.94;99959.06;6172953;28;97101;-66
2021/10/10 09:28:21;;;;;;;;;42.00;35.00;;;;;30.37;16.03;99966.44;6199237;28;98052;-69
2021/10/10 09:31:28;;;;;;;;;39.60;33.00;;;;;30.64;15.44;99959.78;6184673;28;96518;-67
2021/10/10 09:34:33;;;;;;;;;39.50;34.00;;;;;30.90;15.08;99944.63;6188940;28;96614;-70
2021/10/10 09:37:40;;;;;;;;;39.00;34.00;;;;;31.03;15.71;99948.44;6190620;28;97356;-68
2021/10/10 09:40:50;;;;;;;;;42.40;35.00;;;;;30.42;15.75;99949.59;6185664;28;98242;-69
2021/10/10 09:44:08;;;;;;;;;43.50;35.00;;;;;29.27;15.74;99936.81;6200095;28;97442;-67
2021/10/10 09:47:13;;;;;;;;;40.20;34.20;;;;;28.10;17.49;99946.41;6193957;28;97451;-65
2021/10/10 09:50:18;;;;;;;;;46.67;36.00;;;;;27.01;18.56;99947.22;6208793;28;97243;-69
2021/10/10 09:53:30;;;;;;;;;41.67;34.00;;;;;25.70;18.89;99944.50;6209922;28;97260;-66
2021/10/10 09:56:34;;;;;;;;;37.00;32.00;;;;;25.31;19.46;99943.84;6204316;28;97469;-65
2021/10/10 09:59:38;;;;;;;;;38.50;32.00;;;;;25.82;20.00;99941.28;6194029;28;97532;-68
2021/10/10 10:02:43;;;;;;;;;35.60;32.00;;;;;26.66;18.70;99940.34;6195425;28;96627;-65
2021/10/10 10:05:47;;;;;;;;;38.00;33.00;;;;;27.00;17.93;99942.00;6174266;28;98390;-65
2021/10/10 10:08:51;;;;;;;;;43.50;35.00;;;;;26.92;18.04;99937.16;6188539;28;97532;-67
2021/10/10 10:11:57;;;;;;;;;41.00;33.60;;;;;26.97;18.48;99924.06;6188565;28;100022;-67
2021/10/10 10:15:00;;;;;;;;;39.00;33.00;;;;;27.07;18.01;99925.81;6184799;28;96621;-67
2021/10/10 10:18:06;;;;;;;;;41.00;33.00;;;;;27.07;17.96;99923.06;6191299;28;97379;-69
2021/10/10 10:21:14;;;;;;;;;41.00;35.00;;;;;27.67;18.32;99925.75;6192662;28;96843;-67
2021/10/10 10:24:19;;;;;;;;;36.40;32.40;;;;;26.64;18.35;99925.97;6187296;28;97197;-66
2021/10/10 10:27:23;;;;;;;;;35.00;32.00;;;;;26.27;18.90;99926.03;6184100;28;96431;-66
2021/10/10 10:30:27;;;;;;;;;38.40;32.60;;;;;26.14;19.27;99918.47;6184599;28;96946;-69
2021/10/10 10:33:32;;;;;;;;;35.40;32.00;;;;;26.03;19.30;99915.03;6187068;28;96511;-66
2021/10/10 10:36:57;;;;;;;;;39.25;32.25;;;;;26.03;19.77;99909.50;6187734;28;97582;-65
2021/10/10 10:40:01;;;;;;;;;34.25;31.00;;;;;26.37;19.16;99909.28;6186290;28;98009;-68
2021/10/10 10:43:05;;;;;;;;;36.00;31.00;;;;;26.69;18.86;99897.41;6186162;28;96699;-68
2021/10/10 10:46:09;;;;;;;;;34.00;31.20;;;;;27.37;18.43;99905.00;6187471;28;96499;-69
2021/10/10 10:49:34;;;;;;;;;34.25;29.25;;;;;27.93;17.18;99901.88;6184600;28;99782;-66
2021/10/10 10:52:40;;;;;;;;;31.40;29.20;;;;;28.61;17.48;99901.66;6182061;28;96683;-67
2021/10/10 10:55:44;;;;;;;;;35.50;30.00;;;;;29.02;16.89;99890.34;6186540;28;97572;-66
2021/10/10 10:58:47;;;;;;;;;34.50;30.00;;;;;28.46;16.65;99873.47;6185635;28;96650;-66
2021/10/10 11:02:01;;;;;;;;;31.80;29.00;;;;;27.38;17.43;99890.03;6185699;28;96981;-69
2021/10/10 11:05:05;;;;;;;;;30.00;28.50;;;;;26.61;18.18;99881.50;6188312;28;97782;-69
2021/10/10 11:08:40;;;;;;;;;29.75;28.00;;;;;25.90;18.68;99893.69;6189507;28;97469;-69
2021/10/10 11:11:56;;;;;;;;;34.20;30.00;;;;;25.42;19.25;99884.59;6189374;28;97406;-67
2021/10/10 11:15:10;;;;;;;;;28.80;28.80;;;;;24.61;19.97;99877.19;6178256;28;97945;-67
2021/10/10 11:18:17;;;;;;;;;32.00;29.75;;;;;24.80;20.55;99869.84;6189105;28;97582;-69
2021/10/10 11:21:23;;;;;;;;;34.00;29.00;;;;;25.14;19.72;99871.69;6189215;28;98936;-69
2021/10/10 11:24:27;;;;;;;;;31.00;28.75;;;;;25.56;19.28;99880.03;6190799;28;98161;-66
2021/10/10 11:27:31;;;;;;;;;33.80;29.40;;;;;26.10;20.00;99881.47;6190107;28;97331;-70
2021/10/10 11:30:34;;;;;;;;;31.60;28.80;;;;;26.67;18.77;99870.06;6189700;28;97472;-66
2021/10/10 11:33:39;;;;;;;;;33.20;26.80;;;;;27.13;18.54;99871.97;6182895;28;97118;-68
2021/10/10 11:36:47;;;;;;;;;35.00;30.67;;;;;27.24;17.60;99869.81;6182367;28;99470;-69
2021/10/10 11:39:51;;;;;;;;;34.50;29.25;;;;;27.39;17.82;99875.88;6189524;28;97405;-68
2021/10/10 11:42:58;;;;;;;;;33.00;28.40;;;;;26.90;18.14;99870.22;6188302;28;97349;-67
2021/10/10 11:46:02;;;;;;;;;31.60;28.00;;;;;26.34;17.98;99873.94;6159424;28;97976;-69
2021/10/10 11:49:41;;;;;;;;;33.00;29.40;;;;;26.00;18.56;99876.91;6190229;28;96970;-70
2021/10/10 11:52:53;;;;;;;;;30.40;27.20;;;;;25.66;18.95;99871.63;6180984;28;98081;-65
2021/10/10 11:56:03;;;;;;;;;30.00;26.60;;;;;25.80;18.68;99869.75;6191016;28;97422;-65
2021/10/10 11:59:11;;;;;;;;;31.75;28.75;;;;;25.10;19.48;99854.91;6189679;28;96665;-66
2021/10/10 12:02:14;;;;;;;;;26.60;25.00;;;;;24.14;20.01;99858.56;6184746;28;97073;-67
2021/10/10 12:05:20;;;;;;;;;33.40;30.00;;;;;24.14;20.04;99851.06;6188367;28;96963;-67
2021/10/10 12:08:25;;;;;;;;;27.25;24.25;;;;;24.14;19.58;99853.84;6182292;28;97900;-67
2021/10/10 12:11:29;;;;;;;;;25.00;23.00;;;;;24.28;20.69;99828.44;6186964;28;97325;-65
2021/10/10 12:14:52;;;;;;;;;27.00;25.60;;;;;24.60;20.29;99850.72;6200031;28;96743;-70
2021/10/10 12:17:57;;;;;;;;;29.00;26.00;;;;;24.28;19.22;99850.47;6194138;28;96809;-65
2021/10/10 12:21:21;;;;;;;;;33.00;28.20;;;;;23.91;20.13;99823.44;6194906;28;97264;-70
2021/10/10 12:24:25;;;;;;;;;28.00;26.00;;;;;23.60;20.84;99856.66;6187657;28;96681;-65
2021/10/10 12:27:31;;;;;;;;;27.00;24.00;;;;;23.33;21.59;99834.22;6193179;28;98397;-67
2021/10/10 12:30:37;;;;;;;;;25.80;25.60;;;;;23.00;21.17;99843.16;6188513;28;97044;-66
2021/10/10 12:33:41;;;;;;;;;25.00;23.00;;;;;22.68;20.67;99837.97;6187862;28;97985;-67
2021/10/10 12:36:45;;;;;;;;;26.40;24.00;;;;;22.35;22.34;99845.72;6189401;28;97085;-68
2021/10/10 12:39:49;;;;;;;;;29.00;25.40;;;;;22.08;22.01;99839.69;6188081;28;96673;-68
2021/10/10 12:42:55;;;;;;;;;28.00;25.00;;;;;21.88;21.79;99834.97;6188577;28;97216;-67
2021/10/10 12:46:00;;;;;;;;;28.00;24.00;;;;;21.66;22.73;99830.78;6178282;28;97430;-66
2021/10/10 12:49:06;;;;;;;;;22.75;21.00;;;;;21.41;22.36;99826.06;6182922;28;96676;-70
2021/10/10 12:52:12;;;;;;;;;21.40;20.40;;;;;21.17;22.83;99829.28;6182502;28;97549;-69
2021/10/10 12:55:24;;;;;;;;;25.80;20.20;;;;;21.10;23.17;99834.16;6197400;28;97087;-66
2021/10/10 12:58:53;;;;;;;;;23.75;21.75;;;;;20.84;22.81;99828.81;6189583;28;97359;-67
2021/10/10 13:01:57;;;;;;;;;26.40;25.00;;;;;20.75;23.75;99826.59;6188556;28;97247;-67
2021/10/10 13:05:00;;;;;;;;;26.00;22.00;;;;;20.61;23.83;99830.06;6181622;28;96719;-67
2021/10/10 13:08:05;;;;;;;;;23.00;21.60;;;;;20.50;23.92;99822.84;6192776;28;97481;-66
2021/10/10 13:11:08;;;;;;;;;24.00;24.00;;;;;20.27;24.06;99824.03;6189150;28;97749;-68
2021/10/10 13:14:14;;;;;;;;;24.00;23.00;;;;;20.18;24.05;99817.41;6168689;28;97347;-67
2021/10/10 13:17:17;;;;;;;;;24.20;21.60;;;;;20.16;24.09;99817.66;6164975;28;98532;-67
2021/10/10 13:20:21;;;;;;;;;20.20;17.60;;;;;20.10;23.47;99812.38;6168641;28;96647;-67
2021/10/10 13:23:24;;;;;;;;;23.25;21.25;;;;;20.14;24.54;99797.06;6176557;28;96912;-66
2021/10/10 13:26:27;;;;;;;;;23.50;21.00;;;;;20.26;23.82;99803.22;6164847;28;97799;-66
2021/10/10 13:29:32;;;;;;;;;21.00;19.00;;;;;20.20;23.60;99809.72;6168453;28;97303;-68
2021/10/10 13:32:35;;;;;;;;;20.80;18.20;;;;;20.24;24.25;99799.88;6148455;28;99429;-69
2021/10/10 13:35:39;;;;;;;;;22.40;19.40;;;;;20.33;24.21;99805.75;6172780;28;96912;-65
2021/10/10 13:38:43;;;;;;;;;20.50;19.50;;;;;20.34;24.12;99805.47;6174235;28;98173;-68
2021/10/10 13:41:47;;;;;;;;;22.20;20.20;;;;;20.50;24.08;99811.88;6170231;28;96818;-67
2021/10/10 13:44:52;;;;;;;;;21.50;18.50;;;;;20.50;23.45;99806.41;6175911;28;97481;-68
2021/10/10 13:47:55;;;;;;;;;20.00;19.40;;;;;20.37;23.33;99804.97;6163431;28;96722;-67
2021/10/10 13:51:00;;;;;;;;;20.00;18.00;;;;;20.15;22.78;99788.59;6165506;28;97558;-67
2021/10/10 13:54:04;;;;;;;;;22.00;20.00;;;;;20.15;24.04;99798.72;6168299;28;97988;-65
2021/10/10 13:57:07;;;;;;;;;24.25;21.50;;;;;20.02;24.08;99804.66;6165742;28;97590;-68
2021/10/10 14:00:15;;;;;;;;;25.20;23.00;;;;;19.86;24.35;99800.97;6169699;28;98096;-67
2021/10/10 14:03:19;;;;;;;;;27.00;23.40;;;;;19.77;24.66;99794.31;6170255;28;96806;-65
2021/10/10 14:06:22;;;;;;;;;26.40;22.80;;;;;19.57;25.03;99789.47;6169575;28;97479;-66
2021/10/10 14:09:26;;;;;;;;;24.00;18.60;;;;;19.27;25.31;99794.56;6169208;28;96870;-67
2021/10/10 14:12:29;;;;;;;;;22.40;20.60;;;;;19.07;25.24;99780.66;6171136;28;99939;-68
2021/10/10 14:15:35;;;;;;;;;23.00;21.00;;;;;19.24;25.04;99792.38;6165559;28;96643;-67
2021/10/10 14:18:39;;;;;;;;;23.00;20.80;;;;;19.20;25.09;99781.13;6166529;28;97429;-67
2021/10/10 14:21:42;;;;;;;;;24.25;22.50;;;;;19.28;24.94;99782.56;6170953;28;97632;-67